Terminal Aerodrome Forecast
Issued by NWS

Home | Current Version | Previous Version | Graphics & Text | Print | Product List | Glossary On
Versions: 1 2 3 4 5 6 7 8 9 10 11 12 13 14 15 16 17 18 19
165
FTUS41 KCLE 200536
TAFFDY
TAF
KFDY 200536Z 2006/2106 15005KT P6SM SCT025 BKN150
     FM201100 17008KT P6SM VCSH BKN050
      TEMPO 2011/2014 6SM -SHRA BKN035
     FM201400 18010KT P6SM BKN040
     FM201900 18008KT 4SM SHRA VCTS OVC025CB
     FM202300 06005KT 5SM BR VCSH OVC008=

USA.gov is the U.S. government's official web portal to all federal, state and local government web resources and services.